Time;durP1;ratioP1;P1;durP2;ratioP2;P2;SDS_P1;SDS_P2;PMS_P1;PMS_P2;Temp;Humidity;BMP_temperature;BMP_pressure;BME280_temperature;BME280_humidity;BME280_pressure;Samples;Min_cycle;Max_cycle;Signal;HPM_P1;HPM_P2
2024/04/05 00:02:19;;;;;;;;;;;14.00;99.90;;;;;;4993734;28;20000;-74
2024/04/05 00:04:45;;;;;;;;;;;14.00;99.90;;;;;;4994728;28;19920;-74
2024/04/05 00:07:11;;;;;;;;;;;14.10;99.90;;;;;;4993165;28;19917;-74
2024/04/05 00:09:39;;;;;;;;;;;14.30;99.90;;;;;;4995438;28;19910;-75
2024/04/05 00:12:05;;;;;;;;;;;14.30;99.90;;;;;;4993953;28;19922;-75
2024/04/05 00:14:31;;;;;;;;;;;14.30;99.90;;;;;;5002701;28;19978;-74
2024/04/05 00:16:56;;;;;;;;;;;14.30;99.90;;;;;;5007304;28;19909;-75
2024/04/05 00:19:22;;;;;;;;;;;14.20;99.90;;;;;;5008839;28;19913;-78
2024/04/05 00:21:47;;;;;;;;;;;14.20;99.90;;;;;;5002549;28;19918;-74
2024/04/05 00:24:12;;;;;;;;;;;14.20;99.90;;;;;;4999272;28;19913;-75
2024/04/05 00:26:38;;;;;;;;;;;14.30;99.90;;;;;;5006527;28;20380;-74
2024/04/05 00:29:03;;;;;;;;;;;14.20;99.90;;;;;;4998271;28;19953;-74
2024/04/05 00:31:29;;;;;;;;;;;14.30;99.90;;;;;;4997344;28;19914;-74
2024/04/05 00:33:54;;;;;;;;;;;14.20;99.90;;;;;;5007121;28;19910;-74
2024/04/05 00:36:20;;;;;;;;;;;14.20;99.90;;;;;;5004997;28;20372;-77
2024/04/05 00:38:46;;;;;;;;;;;14.30;99.90;;;;;;5006696;28;19910;-74
2024/04/05 00:41:11;;;;;;;;;;;14.20;99.90;;;;;;5005819;28;19931;-75
2024/04/05 00:43:36;;;;;;;;;;;14.10;99.90;;;;;;5015659;28;19922;-74
2024/04/05 00:46:03;;;;;;;;;;;14.10;99.90;;;;;;4979899;28;20373;-76
2024/04/05 00:48:29;;;;;;;;;;;14.10;99.90;;;;;;4989312;28;19957;-74
2024/04/05 00:50:56;;;;;;;;;;;14.10;99.90;;;;;;5000960;28;20379;-75
2024/04/05 00:53:26;;;;;;;;;;;14.30;99.90;;;;;;4999364;28;19937;-74
2024/04/05 00:55:53;;;;;;;;;;;14.30;99.90;;;;;;4993380;28;19955;-74
2024/04/05 00:58:20;;;;;;;;;;;14.30;99.90;;;;;;4998900;28;20392;-75
2024/04/05 01:00:45;;;;;;;;;;;14.20;99.90;;;;;;5004274;28;19910;-74
2024/04/05 01:03:11;;;;;;;;;;;14.20;99.90;;;;;;4992328;28;19925;-77
2024/04/05 01:05:39;;;;;;;;;;;14.20;99.90;;;;;;4991491;28;20303;-76
2024/04/05 01:08:05;;;;;;;;;;;14.10;99.90;;;;;;4992990;28;19910;-75
2024/04/05 01:10:30;;;;;;;;;;;14.10;99.90;;;;;;4985508;28;19918;-76
2024/04/05 01:12:57;;;;;;;;;;;14.00;99.90;;;;;;4983865;28;20273;-74
2024/04/05 01:15:22;;;;;;;;;;;13.90;99.90;;;;;;4978748;28;19960;-77
2024/04/05 01:17:49;;;;;;;;;;;13.80;99.90;;;;;;4992143;28;19910;-74
2024/04/05 01:20:16;;;;;;;;;;;13.80;99.90;;;;;;4990994;28;20001;-75
2024/04/05 01:22:46;;;;;;;;;;;13.80;99.90;;;;;;4992430;28;19924;-74
2024/04/05 01:25:11;;;;;;;;;;;13.70;99.90;;;;;;4973129;28;19914;-74
2024/04/05 01:27:37;;;;;;;;;;;13.70;99.90;;;;;;4984194;28;19963;-76
2024/04/05 01:30:02;;;;;;;;;;;13.80;99.90;;;;;;4990372;28;20391;-74
2024/04/05 01:32:28;;;;;;;;;;;13.80;99.90;;;;;;4991169;28;20009;-75
2024/04/05 01:34:53;;;;;;;;;;;13.70;99.90;;;;;;4976628;28;20343;-74
2024/04/05 01:37:20;;;;;;;;;;;13.70;99.90;;;;;;4984403;28;19910;-77
2024/04/05 01:39:49;;;;;;;;;;;13.70;99.90;;;;;;4992580;28;19910;-74
2024/04/05 01:42:14;;;;;;;;;;;13.70;99.90;;;;;;4979702;28;19925;-74
2024/04/05 01:44:40;;;;;;;;;;;13.70;99.90;;;;;;4999628;28;19914;-74
2024/04/05 01:47:07;;;;;;;;;;;13.60;99.90;;;;;;4991142;28;19910;-75
2024/04/05 01:49:32;;;;;;;;;;;13.50;99.90;;;;;;5010352;28;20003;-74
2024/04/05 01:51:58;;;;;;;;;;;13.40;99.90;;;;;;5008244;28;19996;-75
2024/04/05 01:54:23;;;;;;;;;;;13.50;99.90;;;;;;5015287;28;19913;-74
2024/04/05 01:56:49;;;;;;;;;;;13.60;99.90;;;;;;5014344;28;19910;-76
2024/04/05 01:59:14;;;;;;;;;;;13.70;99.90;;;;;;5004603;28;19910;-74
2024/04/05 02:01:40;;;;;;;;;;;13.70;99.90;;;;;;5004230;28;19924;-74
2024/04/05 02:04:05;;;;;;;;;;;13.80;99.90;;;;;;4979596;28;19929;-76
2024/04/05 02:06:31;;;;;;;;;;;13.90;99.90;;;;;;4991529;28;20436;-75
2024/04/05 02:08:56;;;;;;;;;;;14.00;99.90;;;;;;4989608;28;19910;-74
2024/04/05 02:11:22;;;;;;;;;;;13.90;99.90;;;;;;5002090;28;19918;-76
2024/04/05 02:13:47;;;;;;;;;;;13.90;99.90;;;;;;5003484;28;20042;-75
2024/04/05 02:16:13;;;;;;;;;;;14.00;99.90;;;;;;5001865;28;19914;-76
2024/04/05 02:18:39;;;;;;;;;;;13.90;99.90;;;;;;4990328;28;19910;-75
2024/04/05 02:21:04;;;;;;;;;;;13.90;99.90;;;;;;4989740;28;19933;-75
2024/04/05 02:23:30;;;;;;;;;;;13.80;99.90;;;;;;5009362;28;19917;-76
2024/04/05 02:25:55;;;;;;;;;;;13.90;99.90;;;;;;5009145;28;19910;-76
2024/04/05 02:28:21;;;;;;;;;;;14.10;99.90;;;;;;5008396;28;19909;-75
2024/04/05 02:30:46;;;;;;;;;;;14.20;99.90;;;;;;4997430;28;19914;-74
2024/04/05 02:33:12;;;;;;;;;;;14.30;99.90;;;;;;5009661;28;19916;-75
2024/04/05 02:35:38;;;;;;;;;;;14.40;99.90;;;;;;5002376;28;19917;-77
2024/04/05 02:38:03;;;;;;;;;;;14.30;99.90;;;;;;4998562;28;19932;-77
2024/04/05 02:40:29;;;;;;;;;;;14.50;99.90;;;;;;5009850;28;19913;-74
2024/04/05 02:42:54;;;;;;;;;;;14.50;99.90;;;;;;5009328;28;19930;-74
2024/04/05 02:45:20;;;;;;;;;;;14.60;99.90;;;;;;5009926;28;19966;-75
2024/04/05 02:47:46;;;;;;;;;;;14.60;99.90;;;;;;5008216;28;19909;-77
2024/04/05 02:50:12;;;;;;;;;;;14.80;99.90;;;;;;5008590;28;20000;-77
2024/04/05 02:52:37;;;;;;;;;;;14.70;99.90;;;;;;5010362;28;19944;-75
2024/04/05 02:55:05;;;;;;;;;;;14.70;99.90;;;;;;5010392;28;20134;-75
2024/04/05 02:57:30;;;;;;;;;;;14.80;99.90;;;;;;5017471;28;19922;-75
2024/04/05 02:59:56;;;;;;;;;;;14.70;99.90;;;;;;4991770;28;20285;-75
2024/04/05 03:02:21;;;;;;;;;;;14.70;99.90;;;;;;4989789;28;19921;-75
2024/04/05 03:04:47;;;;;;;;;;;14.60;99.90;;;;;;4989835;28;20113;-75
2024/04/05 03:07:12;;;;;;;;;;;14.40;99.90;;;;;;4978009;28;20035;-75
2024/04/05 03:09:38;;;;;;;;;;;14.30;99.90;;;;;;4990973;28;19936;-77
2024/04/05 03:12:04;;;;;;;;;;;14.30;99.90;;;;;;4993599;28;20404;-77
2024/04/05 03:14:30;;;;;;;;;;;14.20;99.90;;;;;;4994918;28;19910;-74
2024/04/05 03:16:55;;;;;;;;;;;14.30;99.90;;;;;;4994564;28;19914;-74
2024/04/05 03:19:20;;;;;;;;;;;14.20;99.90;;;;;;4994824;28;19925;-75
2024/04/05 03:21:46;;;;;;;;;;;14.20;99.90;;;;;;4994476;28;19924;-77
2024/04/05 03:24:12;;;;;;;;;;;14.30;99.90;;;;;;4999012;28;19917;-74
2024/04/05 03:26:38;;;;;;;;;;;14.30;99.90;;;;;;4993731;28;19932;-75
2024/04/05 03:29:03;;;;;;;;;;;14.20;99.90;;;;;;5009415;28;19947;-75
2024/04/05 03:31:29;;;;;;;;;;;14.20;99.90;;;;;;5007425;28;19914;-74
2024/04/05 03:33:54;;;;;;;;;;;14.30;99.90;;;;;;5002382;28;19917;-74
2024/04/05 03:36:20;;;;;;;;;;;14.30;99.90;;;;;;4996657;28;19914;-74
2024/04/05 03:38:45;;;;;;;;;;;14.30;99.90;;;;;;5009142;28;19916;-75
2024/04/05 03:41:11;;;;;;;;;;;14.40;99.90;;;;;;5007543;28;20322;-74
2024/04/05 03:43:36;;;;;;;;;;;14.20;99.90;;;;;;4998452;28;20369;-74
2024/04/05 03:46:02;;;;;;;;;;;14.20;99.90;;;;;;4989122;28;19955;-73
2024/04/05 03:48:27;;;;;;;;;;;14.10;99.90;;;;;;4989849;28;19973;-75
2024/04/05 03:50:53;;;;;;;;;;;14.00;99.90;;;;;;5007691;28;19918;-76
2024/04/05 03:53:19;;;;;;;;;;;14.10;99.90;;;;;;5005499;28;19910;-77
2024/04/05 03:55:45;;;;;;;;;;;14.00;99.90;;;;;;5004953;28;19914;-75
2024/04/05 03:58:10;;;;;;;;;;;14.00;99.90;;;;;;4990465;28;20316;-77
2024/04/05 04:00:36;;;;;;;;;;;14.00;99.90;;;;;;4993571;28;19914;-74
2024/04/05 04:03:02;;;;;;;;;;;13.80;99.90;;;;;;4999734;28;19918;-76
2024/04/05 04:05:27;;;;;;;;;;;13.90;99.90;;;;;;4996676;28;19916;-74
2024/04/05 04:07:53;;;;;;;;;;;14.00;99.90;;;;;;4995837;28;19922;-75
2024/04/05 04:10:20;;;;;;;;;;;14.10;99.90;;;;;;5004377;28;20280;-74
2024/04/05 04:12:45;;;;;;;;;;;14.10;99.90;;;;;;4999087;28;19917;-74
2024/04/05 04:15:15;;;;;;;;;;;14.10;99.90;;;;;;4988044;28;19914;-75
2024/04/05 04:17:41;;;;;;;;;;;14.10;99.90;;;;;;4999295;28;19905;-74
2024/04/05 04:20:08;;;;;;;;;;;14.20;99.90;;;;;;5008033;28;20359;-77
2024/04/05 04:22:33;;;;;;;;;;;14.40;99.90;;;;;;5008875;28;19921;-74
2024/04/05 04:24:59;;;;;;;;;;;14.40;99.90;;;;;;5005378;28;19910;-76
2024/04/05 04:27:26;;;;;;;;;;;14.30;99.90;;;;;;5000666;28;19945;-75
2024/04/05 04:29:54;;;;;;;;;;;14.30;99.90;;;;;;4995000;28;19996;-75
2024/04/05 04:32:21;;;;;;;;;;;14.10;99.90;;;;;;4997336;28;19916;-75
2024/04/05 04:34:46;;;;;;;;;;;14.00;99.90;;;;;;5008280;28;19923;-75
2024/04/05 04:37:12;;;;;;;;;;;14.00;99.90;;;;;;5001069;28;20304;-74
2024/04/05 04:39:39;;;;;;;;;;;13.90;99.90;;;;;;5008906;28;19913;-75
2024/04/05 04:42:06;;;;;;;;;;;13.70;99.90;;;;;;4997347;28;19922;-75
2024/04/05 04:44:32;;;;;;;;;;;13.60;99.90;;;;;;5002462;28;19914;-73
2024/04/05 04:46:57;;;;;;;;;;;13.80;99.90;;;;;;4992905;28;19917;-74
2024/04/05 04:49:23;;;;;;;;;;;13.80;99.90;;;;;;5007780;28;19914;-76
2024/04/05 04:51:48;;;;;;;;;;;13.80;99.90;;;;;;5010373;28;19909;-74
2024/04/05 04:54:14;;;;;;;;;;;13.80;99.90;;;;;;4996451;28;19914;-74
2024/04/05 04:56:41;;;;;;;;;;;13.80;99.90;;;;;;5002861;28;19936;-74
2024/04/05 04:59:08;;;;;;;;;;;13.80;99.90;;;;;;4984216;28;19921;-74
2024/04/05 05:01:35;;;;;;;;;;;14.00;99.90;;;;;;5000117;28;19914;-75
2024/04/05 05:04:00;;;;;;;;;;;14.10;99.90;;;;;;5010180;28;20461;-74
2024/04/05 05:06:26;;;;;;;;;;;14.10;99.90;;;;;;4999510;28;19965;-76
2024/04/05 05:08:52;;;;;;;;;;;14.00;99.90;;;;;;5017363;28;19948;-76
2024/04/05 05:11:17;;;;;;;;;;;14.00;99.90;;;;;;5019981;28;19918;-75
2024/04/05 05:13:45;;;;;;;;;;;13.90;99.90;;;;;;5007634;28;21945;-75
2024/04/05 05:16:10;;;;;;;;;;;13.80;99.90;;;;;;4992774;28;19910;-75
2024/04/05 05:18:36;;;;;;;;;;;13.80;99.90;;;;;;4990851;28;19910;-75
2024/04/05 05:21:01;;;;;;;;;;;13.90;99.90;;;;;;5003293;28;19921;-78
2024/04/05 05:23:26;;;;;;;;;;;13.90;99.90;;;;;;5009329;28;19914;-75
2024/04/05 05:25:52;;;;;;;;;;;14.00;99.90;;;;;;5000175;28;19910;-75
2024/04/05 05:28:18;;;;;;;;;;;14.00;99.90;;;;;;5001210;28;19918;-79
2024/04/05 05:30:43;;;;;;;;;;;14.00;99.90;;;;;;5000197;28;19917;-75
2024/04/05 05:33:09;;;;;;;;;;;14.10;99.90;;;;;;5008376;28;19917;-76
2024/04/05 05:35:34;;;;;;;;;;;14.00;99.90;;;;;;4995650;28;19914;-76
2024/04/05 05:38:00;;;;;;;;;;;14.10;99.90;;;;;;4995082;28;19909;-75
2024/04/05 05:40:26;;;;;;;;;;;14.20;99.90;;;;;;5004426;28;19910;-76
2024/04/05 05:42:52;;;;;;;;;;;14.40;99.90;;;;;;4999582;28;19914;-78
2024/04/05 05:45:18;;;;;;;;;;;14.50;99.90;;;;;;5006432;28;19918;-75
2024/04/05 05:47:43;;;;;;;;;;;14.70;99.90;;;;;;4995797;28;19914;-77
2024/04/05 05:50:11;;;;;;;;;;;14.70;99.90;;;;;;4993717;28;19974;-75
2024/04/05 05:52:36;;;;;;;;;;;14.90;99.90;;;;;;4991759;28;19960;-76
2024/04/05 05:55:02;;;;;;;;;;;15.00;99.90;;;;;;4995365;28;19910;-76
2024/04/05 05:57:27;;;;;;;;;;;15.20;99.90;;;;;;4993126;28;19936;-78
2024/04/05 05:59:53;;;;;;;;;;;15.30;99.90;;;;;;4999350;28;19949;-75
2024/04/05 06:02:20;;;;;;;;;;;15.30;99.90;;;;;;4997606;28;19939;-75
2024/04/05 06:04:45;;;;;;;;;;;15.30;99.90;;;;;;4994792;28;19971;-74
2024/04/05 06:07:11;;;;;;;;;;;15.40;99.90;;;;;;4982818;28;19918;-74
2024/04/05 06:09:36;;;;;;;;;;;15.40;99.90;;;;;;4995822;28;20294;-75
2024/04/05 06:12:02;;;;;;;;;;;15.40;99.90;;;;;;5005541;28;19922;-76
2024/04/05 06:14:28;;;;;;;;;;;15.50;99.90;;;;;;4989726;28;19923;-75
2024/04/05 06:16:54;;;;;;;;;;;15.60;99.90;;;;;;4993956;28;19914;-70
2024/04/05 06:19:19;;;;;;;;;;;15.70;99.90;;;;;;5005380;28;20327;-71
2024/04/05 06:21:45;;;;;;;;;;;15.70;99.90;;;;;;4996107;28;19959;-71
2024/04/05 06:24:10;;;;;;;;;;;15.70;99.90;;;;;;4999905;28;20348;-71
2024/04/05 06:26:36;;;;;;;;;;;15.70;99.90;;;;;;4998237;28;19920;-73
2024/04/05 06:29:02;;;;;;;;;;;15.70;99.90;;;;;;4994555;28;19909;-72
2024/04/05 06:31:28;;;;;;;;;;;15.80;99.90;;;;;;4998371;28;20234;-72
2024/04/05 06:33:54;;;;;;;;;;;15.80;99.90;;;;;;5001139;28;19914;-72
2024/04/05 06:36:20;;;;;;;;;;;15.80;99.90;;;;;;5000828;28;20651;-72
2024/04/05 06:38:45;;;;;;;;;;;15.80;99.90;;;;;;4999755;28;19929;-72
2024/04/05 06:41:11;;;;;;;;;;;15.90;99.90;;;;;;4982788;28;19914;-72
2024/04/05 06:43:37;;;;;;;;;;;15.90;99.90;;;;;;4987692;28;20000;-71
2024/04/05 06:46:07;;;;;;;;;;;16.00;99.90;;;;;;4981926;28;19950;-71
2024/04/05 06:48:33;;;;;;;;;;;16.10;99.90;;;;;;4984259;28;20002;-71
2024/04/05 06:50:59;;;;;;;;;;;16.20;99.90;;;;;;4990747;28;19950;-74
2024/04/05 06:53:27;;;;;;;;;;;16.30;99.90;;;;;;4992872;28;20004;-72
2024/04/05 06:55:53;;;;;;;;;;;16.40;99.90;;;;;;4988983;28;19910;-73
2024/04/05 06:58:18;;;;;;;;;;;16.50;99.90;;;;;;4987982;28;19918;-74
2024/04/05 07:00:45;;;;;;;;;;;16.50;99.90;;;;;;5012499;28;20292;-73
2024/04/05 07:03:12;;;;;;;;;;;16.50;99.90;;;;;;4988515;28;19917;-73
2024/04/05 07:05:38;;;;;;;;;;;16.50;99.90;;;;;;4988633;28;19933;-73
2024/04/05 07:08:04;;;;;;;;;;;16.60;99.90;;;;;;4990981;28;19936;-73
2024/04/05 07:10:31;;;;;;;;;;;16.70;99.90;;;;;;4988492;28;19960;-72
2024/04/05 07:12:57;;;;;;;;;;;16.70;99.90;;;;;;4989622;28;19910;-71
2024/04/05 07:15:23;;;;;;;;;;;16.80;99.90;;;;;;4987687;28;19917;-72
2024/04/05 07:17:49;;;;;;;;;;;16.70;99.90;;;;;;4988344;28;20009;-72
2024/04/05 07:20:15;;;;;;;;;;;16.70;99.90;;;;;;4990431;28;19910;-72
2024/04/05 07:22:41;;;;;;;;;;;16.70;99.90;;;;;;4994547;28;20266;-71
2024/04/05 07:25:08;;;;;;;;;;;16.70;99.90;;;;;;5015260;28;19938;-71
2024/04/05 07:27:34;;;;;;;;;;;16.60;99.90;;;;;;4990347;28;20396;-72
2024/04/05 07:29:59;;;;;;;;;;;16.70;99.90;;;;;;4986681;28;19921;-72
2024/04/05 07:32:25;;;;;;;;;;;16.70;99.90;;;;;;4989013;28;19914;-72
2024/04/05 07:34:50;;;;;;;;;;;16.60;99.90;;;;;;4988617;28;19917;-73
2024/04/05 07:37:16;;;;;;;;;;;16.60;99.90;;;;;;4989900;28;19917;-72
2024/04/05 07:39:42;;;;;;;;;;;16.70;99.90;;;;;;4989317;28;19917;-72
2024/04/05 07:42:08;;;;;;;;;;;16.70;99.90;;;;;;4990376;28;19984;-72
2024/04/05 07:44:33;;;;;;;;;;;16.80;99.90;;;;;;4990749;28;19976;-71
2024/04/05 07:46:59;;;;;;;;;;;16.90;99.90;;;;;;4988829;28;20392;-71
2024/04/05 07:49:26;;;;;;;;;;;16.90;99.90;;;;;;4991223;28;19974;-73
2024/04/05 07:51:51;;;;;;;;;;;17.00;99.90;;;;;;4989211;28;19949;-72
2024/04/05 07:54:17;;;;;;;;;;;17.00;99.90;;;;;;4990439;28;20407;-72
2024/04/05 07:56:43;;;;;;;;;;;17.10;99.90;;;;;;4991015;28;20011;-70
2024/04/05 07:59:10;;;;;;;;;;;17.10;99.90;;;;;;4988249;28;19922;-71
2024/04/05 08:01:36;;;;;;;;;;;17.20;99.90;;;;;;4987836;28;19910;-72
2024/04/05 08:04:01;;;;;;;;;;;17.30;99.90;;;;;;5006590;28;19983;-72
2024/04/05 08:06:27;;;;;;;;;;;17.30;99.90;;;;;;4989497;28;19925;-70
2024/04/05 08:08:52;;;;;;;;;;;17.50;99.90;;;;;;4989228;28;19961;-72
2024/04/05 08:11:18;;;;;;;;;;;17.50;99.90;;;;;;4996659;28;20334;-72
2024/04/05 08:13:43;;;;;;;;;;;17.60;99.90;;;;;;4992562;28;19925;-73
2024/04/05 08:16:09;;;;;;;;;;;17.60;99.90;;;;;;4997867;28;19925;-71
2024/04/05 08:18:34;;;;;;;;;;;17.60;99.90;;;;;;4992808;28;19967;-71
2024/04/05 08:21:04;;;;;;;;;;;17.60;99.90;;;;;;4997462;28;20292;-73
2024/04/05 08:23:29;;;;;;;;;;;17.60;99.90;;;;;;4988270;28;20439;-71
2024/04/05 08:25:55;;;;;;;;;;;17.60;99.90;;;;;;4993723;28;19918;-72
2024/04/05 08:28:20;;;;;;;;;;;17.60;99.90;;;;;;4991548;28;19949;-72
2024/04/05 08:30:50;;;;;;;;;;;17.60;99.90;;;;;;4992163;28;19916;-72
2024/04/05 08:33:15;;;;;;;;;;;17.60;99.90;;;;;;4991899;28;20004;-72
2024/04/05 08:35:49;;;;;;;;;;;17.80;99.90;;;;;;4993320;28;20409;-72
2024/04/05 08:38:15;;;;;;;;;;;17.80;99.90;;;;;;4992319;28;19967;-73
2024/04/05 08:40:40;;;;;;;;;;;17.80;99.90;;;;;;4992651;28;20323;-74
2024/04/05 08:43:09;;;;;;;;;;;18.00;99.90;;;;;;4990168;28;20004;-71
2024/04/05 08:45:34;;;;;;;;;;;18.10;99.90;;;;;;4994134;28;19918;-72
2024/04/05 08:48:04;;;;;;;;;;;18.10;99.90;;;;;;4992995;28;19933;-72
2024/04/05 08:50:30;;;;;;;;;;;18.20;99.90;;;;;;4991289;28;19914;-71
2024/04/05 08:52:55;;;;;;;;;;;18.40;99.90;;;;;;4990130;28;20052;-73
2024/04/05 08:55:22;;;;;;;;;;;18.40;99.90;;;;;;4994844;28;20249;-72
2024/04/05 08:57:47;;;;;;;;;;;18.40;99.90;;;;;;4991101;28;19914;-71
2024/04/05 09:00:17;;;;;;;;;;;18.40;99.90;;;;;;4994375;28;20004;-71
2024/04/05 09:02:43;;;;;;;;;;;18.10;99.90;;;;;;4983942;28;20442;-72
2024/04/05 09:05:09;;;;;;;;;;;17.90;99.90;;;;;;4989409;28;19914;-71
2024/04/05 09:07:35;;;;;;;;;;;17.80;99.90;;;;;;4991370;28;19925;-72
2024/04/05 09:10:16;;;;;;;;;;;17.60;99.90;;;;;;4990509;28;20396;-73
2024/04/05 09:12:46;;;;;;;;;;;17.40;99.90;;;;;;4984986;28;19958;-73
2024/04/05 09:15:21;;;;;;;;;;;17.30;99.90;;;;;;4993574;28;19918;-73
2024/04/05 09:17:47;;;;;;;;;;;17.20;99.90;;;;;;4993045;28;19921;-73
2024/04/05 09:20:19;;;;;;;;;;;16.90;99.90;;;;;;4993240;28;19925;-73
2024/04/05 09:22:45;;;;;;;;;;;16.90;99.90;;;;;;4989418;28;19925;-73
2024/04/05 09:25:12;;;;;;;;;;;16.70;99.90;;;;;;4989113;28;19971;-72
2024/04/05 09:27:38;;;;;;;;;;;16.70;99.90;;;;;;4990637;28;20440;-73
2024/04/05 09:30:04;;;;;;;;;;;16.90;99.90;;;;;;4987300;28;20158;-72
2024/04/05 09:32:30;;;;;;;;;;;17.00;99.90;;;;;;4998191;28;19910;-73
2024/04/05 09:34:57;;;;;;;;;;;17.20;99.90;;;;;;4989763;28;19922;-71
2024/04/05 09:37:25;;;;;;;;;;;17.50;99.90;;;;;;4996325;28;19998;-70
2024/04/05 09:39:52;;;;;;;;;;;17.70;99.90;;;;;;4996727;28;19918;-71
2024/04/05 09:42:21;;;;;;;;;;;17.80;99.90;;;;;;4994124;28;20380;-71
2024/04/05 09:44:50;;;;;;;;;;;18.00;99.90;;;;;;4992236;28;19992;-72
2024/04/05 09:47:17;;;;;;;;;;;18.10;99.90;;;;;;4989998;28;19959;-72
2024/04/05 09:49:43;;;;;;;;;;;18.40;99.90;;;;;;4993987;28;19992;-72
2024/04/05 09:52:10;;;;;;;;;;;18.60;99.90;;;;;;4988778;28;19945;-72
2024/04/05 09:54:38;;;;;;;;;;;18.70;99.90;;;;;;4991776;28;19910;-72
2024/04/05 09:57:04;;;;;;;;;;;18.90;99.90;;;;;;4993593;28;20318;-72
2024/04/05 09:59:30;;;;;;;;;;;19.20;99.90;;;;;;4996592;28;19928;-71
2024/04/05 10:01:56;;;;;;;;;;;19.40;99.90;;;;;;4990465;28;19914;-73
2024/04/05 10:04:22;;;;;;;;;;;19.60;99.90;;;;;;5005095;28;20696;-73
2024/04/05 10:06:47;;;;;;;;;;;19.70;99.90;;;;;;4992321;28;19910;-73
2024/04/05 10:09:20;;;;;;;;;;;19.80;99.90;;;;;;4991952;28;19913;-73
2024/04/05 10:11:47;;;;;;;;;;;19.80;99.90;;;;;;4985471;28;19933;-73
2024/04/05 10:14:25;;;;;;;;;;;19.60;99.90;;;;;;4996566;28;19925;-73
2024/04/05 10:16:52;;;;;;;;;;;19.60;99.90;;;;;;4989540;28;19910;-72
2024/04/05 10:19:18;;;;;;;;;;;19.60;99.90;;;;;;4994548;28;19910;-71
2024/04/05 10:21:45;;;;;;;;;;;19.50;99.90;;;;;;4991253;28;19921;-72
2024/04/05 10:24:11;;;;;;;;;;;19.30;99.90;;;;;;4996553;28;19914;-72
2024/04/05 10:26:37;;;;;;;;;;;19.30;99.90;;;;;;4990888;28;19910;-73
2024/04/05 10:29:04;;;;;;;;;;;19.40;99.90;;;;;;4995174;28;19918;-71
2024/04/05 10:31:38;;;;;;;;;;;19.40;99.90;;;;;;4991421;28;19921;-72
2024/04/05 10:34:04;;;;;;;;;;;19.40;99.90;;;;;;5013944;28;19909;-72
2024/04/05 10:36:33;;;;;;;;;;;19.20;99.90;;;;;;4988987;28;20412;-72
2024/04/05 10:39:03;;;;;;;;;;;19.00;99.90;;;;;;4993723;28;20394;-73
2024/04/05 10:41:28;;;;;;;;;;;18.80;99.90;;;;;;4990076;28;19910;-72
2024/04/05 10:44:01;;;;;;;;;;;18.90;99.90;;;;;;4989210;28;19922;-72
2024/04/05 10:46:27;;;;;;;;;;;18.90;99.90;;;;;;4989756;28;19978;-72
2024/04/05 10:48:56;;;;;;;;;;;19.00;99.90;;;;;;4990985;28;19914;-72
2024/04/05 10:51:21;;;;;;;;;;;19.10;99.90;;;;;;4990778;28;19953;-72
2024/04/05 10:53:47;;;;;;;;;;;19.20;99.90;;;;;;4992862;28;19956;-71
2024/04/05 10:56:12;;;;;;;;;;;19.20;99.90;;;;;;4989162;28;20402;-73
2024/04/05 10:58:38;;;;;;;;;;;19.30;99.90;;;;;;4989627;28;19909;-71
2024/04/05 11:01:04;;;;;;;;;;;19.20;99.90;;;;;;4988706;28;19918;-71
2024/04/05 11:03:29;;;;;;;;;;;19.30;99.90;;;;;;4991033;28;19922;-71
2024/04/05 11:06:01;;;;;;;;;;;19.40;99.90;;;;;;4991269;28;20407;-72
2024/04/05 11:08:27;;;;;;;;;;;19.50;99.90;;;;;;4987559;28;19987;-71
2024/04/05 11:10:52;;;;;;;;;;;19.70;99.90;;;;;;4988117;28;20409;-71
2024/04/05 11:13:19;;;;;;;;;;;19.80;99.90;;;;;;4988123;28;20013;-71
2024/04/05 11:15:44;;;;;;;;;;;19.80;99.90;;;;;;4992292;28;19956;-72
2024/04/05 11:18:11;;;;;;;;;;;19.90;99.90;;;;;;4991014;28;20463;-72
2024/04/05 11:20:39;;;;;;;;;;;19.90;99.90;;;;;;4992602;28;19920;-73
2024/04/05 11:23:06;;;;;;;;;;;19.90;99.90;;;;;;4990413;28;19914;-72
2024/04/05 11:25:32;;;;;;;;;;;19.90;99.90;;;;;;4997052;28;19914;-72
2024/04/05 11:27:58;;;;;;;;;;;20.00;99.90;;;;;;4989370;28;20369;-73
2024/04/05 11:30:26;;;;;;;;;;;19.90;99.90;;;;;;4992089;28;19916;-71
2024/04/05 11:32:52;;;;;;;;;;;20.00;99.90;;;;;;4987493;28;19921;-72
2024/04/05 11:35:17;;;;;;;;;;;20.00;99.90;;;;;;4988106;28;19914;-72
2024/04/05 11:37:43;;;;;;;;;;;19.70;99.90;;;;;;4989530;28;19913;-72
2024/04/05 11:40:10;;;;;;;;;;;19.30;99.90;;;;;;4993134;28;19921;-72
2024/04/05 11:42:39;;;;;;;;;;;18.80;99.90;;;;;;4989624;28;19914;-72
2024/04/05 11:45:06;;;;;;;;;;;18.70;99.90;;;;;;4992548;28;20383;-72
2024/04/05 11:47:32;;;;;;;;;;;18.50;99.90;;;;;;4990512;28;19922;-72
2024/04/05 11:49:58;;;;;;;;;;;18.30;99.90;;;;;;4997886;28;19910;-70
2024/04/05 11:52:23;;;;;;;;;;;18.40;99.90;;;;;;5005546;28;19918;-72
2024/04/05 11:54:49;;;;;;;;;;;18.60;99.90;;;;;;5001909;28;19909;-72
2024/04/05 11:57:15;;;;;;;;;;;18.90;99.90;;;;;;4992108;28;19918;-72
2024/04/05 11:59:42;;;;;;;;;;;19.30;99.90;;;;;;4988541;28;20000;-72
2024/04/05 12:02:08;;;;;;;;;;;19.70;99.90;;;;;;4987143;28;19928;-72
2024/04/05 12:04:33;;;;;;;;;;;20.10;99.90;;;;;;4992834;28;19914;-72
2024/04/05 12:06:59;;;;;;;;;;;20.30;99.90;;;;;;4986849;28;19922;-73
2024/04/05 12:09:24;;;;;;;;;;;20.40;99.90;;;;;;4988210;28;19918;-72
2024/04/05 12:11:50;;;;;;;;;;;20.40;99.90;;;;;;4988900;28;19971;-72
2024/04/05 12:14:16;;;;;;;;;;;20.70;99.90;;;;;;4990553;28;19945;-72
2024/04/05 12:16:41;;;;;;;;;;;20.70;99.90;;;;;;4989505;28;19917;-72
2024/04/05 12:19:07;;;;;;;;;;;20.80;99.90;;;;;;4991827;28;19916;-73
2024/04/05 12:21:33;;;;;;;;;;;20.80;99.90;;;;;;4989170;28;20655;-72
2024/04/05 12:23:59;;;;;;;;;;;20.50;99.90;;;;;;4985366;28;20404;-71
2024/04/05 12:26:24;;;;;;;;;;;20.20;99.90;;;;;;4990516;28;19961;-72
2024/04/05 12:28:50;;;;;;;;;;;19.90;99.90;;;;;;4989710;28;19925;-71
2024/04/05 12:31:16;;;;;;;;;;;19.60;99.90;;;;;;4986500;28;19918;-72
2024/04/05 12:33:41;;;;;;;;;;;19.30;99.90;;;;;;4995980;28;19927;-72
2024/04/05 12:36:09;;;;;;;;;;;19.10;99.90;;;;;;4989055;28;19924;-73
2024/04/05 12:38:39;;;;;;;;;;;19.10;99.90;;;;;;4993900;28;19941;-71
2024/04/05 12:41:05;;;;;;;;;;;19.10;99.90;;;;;;4989371;28;19914;-71
2024/04/05 12:43:31;;;;;;;;;;;19.10;99.90;;;;;;4990823;28;20024;-71
2024/04/05 12:45:58;;;;;;;;;;;19.10;99.90;;;;;;4990413;28;19953;-71
2024/04/05 12:48:24;;;;;;;;;;;19.20;99.90;;;;;;4986884;28;19928;-72
2024/04/05 12:50:54;;;;;;;;;;;19.10;99.90;;;;;;4989688;28;19909;-72
2024/04/05 12:53:20;;;;;;;;;;;18.90;99.90;;;;;;4988192;28;19929;-72
2024/04/05 12:55:53;;;;;;;;;;;18.70;99.90;;;;;;4990116;28;19910;-72
2024/04/05 12:58:18;;;;;;;;;;;18.40;99.90;;;;;;4990619;28;20427;-72
2024/04/05 13:00:43;;;;;;;;;;;18.20;99.90;;;;;;4990264;28;19914;-71
2024/04/05 13:03:09;;;;;;;;;;;18.10;99.90;;;;;;4993492;28;19918;-72
2024/04/05 13:05:34;;;;;;;;;;;18.10;99.90;;;;;;4995582;28;19973;-72
2024/04/05 13:08:00;;;;;;;;;;;18.20;99.90;;;;;;4992288;28;20008;-72
2024/04/05 13:10:26;;;;;;;;;;;18.30;99.90;;;;;;4991845;28;20339;-72
2024/04/05 13:12:53;;;;;;;;;;;18.40;99.90;;;;;;4990830;28;19918;-73
2024/04/05 13:15:18;;;;;;;;;;;18.40;99.90;;;;;;4989748;28;20076;-73
2024/04/05 13:17:44;;;;;;;;;;;18.40;99.90;;;;;;4990569;28;20529;-74
2024/04/05 13:20:09;;;;;;;;;;;18.70;99.90;;;;;;4989325;28;19914;-72
2024/04/05 13:22:35;;;;;;;;;;;19.10;99.90;;;;;;4989190;28;20004;-72
2024/04/05 13:25:00;;;;;;;;;;;19.20;99.90;;;;;;4990741;28;19909;-72
2024/04/05 13:27:26;;;;;;;;;;;19.40;99.90;;;;;;4990889;28;19910;-71
2024/04/05 13:29:51;;;;;;;;;;;19.70;99.90;;;;;;4990106;28;19910;-71
2024/04/05 13:32:18;;;;;;;;;;;20.00;99.90;;;;;;4987312;28;19921;-71
2024/04/05 13:34:44;;;;;;;;;;;20.10;99.90;;;;;;4994620;28;19920;-70
2024/04/05 13:37:09;;;;;;;;;;;20.10;99.90;;;;;;4991341;28;19910;-72
2024/04/05 13:39:35;;;;;;;;;;;20.10;99.90;;;;;;4991245;28;19918;-72
2024/04/05 13:42:00;;;;;;;;;;;20.00;99.90;;;;;;4990711;28;19949;-71
2024/04/05 13:44:26;;;;;;;;;;;19.80;99.90;;;;;;4990588;28;20368;-72
2024/04/05 13:46:51;;;;;;;;;;;19.50;99.90;;;;;;4992251;28;20252;-71
2024/04/05 13:49:17;;;;;;;;;;;19.60;99.90;;;;;;4989639;28;19960;-70
2024/04/05 13:51:42;;;;;;;;;;;19.80;99.90;;;;;;4997117;28;19909;-71
2024/04/05 13:54:08;;;;;;;;;;;20.00;99.90;;;;;;4997763;28;19916;-71
2024/04/05 13:56:34;;;;;;;;;;;20.10;99.90;;;;;;4993089;28;20365;-71
2024/04/05 13:58:59;;;;;;;;;;;20.30;99.90;;;;;;4988723;28;19921;-72
2024/04/05 14:01:25;;;;;;;;;;;20.60;99.90;;;;;;4990631;28;19914;-72
2024/04/05 14:03:52;;;;;;;;;;;20.90;99.90;;;;;;4988453;28;19918;-72
2024/04/05 14:06:18;;;;;;;;;;;21.10;99.90;;;;;;4992538;28;19910;-72
2024/04/05 14:08:43;;;;;;;;;;;21.30;99.90;;;;;;5002660;28;19914;-72
2024/04/05 14:11:12;;;;;;;;;;;21.40;99.90;;;;;;5011476;28;19917;-72